createdAt,value
2023-04-03T00:01:17.573Z,13.06
2023-04-03T00:06:14.361Z,12.98
2023-04-03T00:11:15.614Z,12.82
2023-04-03T00:16:13.518Z,12.62
2023-04-03T00:21:14.051Z,12.97
2023-04-03T00:26:11.489Z,12.79
2023-04-03T00:31:10.728Z,12.59
2023-04-03T00:36:10.252Z,12.57
2023-04-03T00:41:07.478Z,12.72
2023-04-03T00:46:04.835Z,12.81
2023-04-03T00:51:03.288Z,12.78
2023-04-03T00:56:01.260Z,12.74
2023-04-03T01:00:59.861Z,12.70
2023-04-03T01:05:56.994Z,12.67
2023-04-03T01:10:53.777Z,12.66
2023-04-03T01:15:53.225Z,12.52
2023-04-03T01:21:37.788Z,12.63
2023-04-03T01:26:36.053Z,12.48
2023-04-03T01:31:44.538Z,12.42
2023-04-03T01:36:43.981Z,12.46
2023-04-03T01:41:41.694Z,12.28
2023-04-03T01:46:45.083Z,12.48
2023-04-03T01:51:42.456Z,12.46
2023-04-03T01:56:40.128Z,11.96
2023-04-03T02:01:38.281Z,12.09
2023-04-03T02:06:35.908Z,12.26
2023-04-03T02:11:32.804Z,12.27
2023-04-03T02:16:29.665Z,12.22
2023-04-03T02:21:26.605Z,12.06
2023-04-03T02:26:25.347Z,11.96
2023-04-03T02:31:22.682Z,12.00
2023-04-03T02:36:19.448Z,12.03
2023-04-03T02:41:22.399Z,11.87
2023-04-03T02:46:22.537Z,11.94
2023-04-03T02:51:19.366Z,11.92
2023-04-03T02:56:17.501Z,11.88
2023-04-03T03:01:15.020Z,11.47
2023-04-03T03:06:14.401Z,11.87
2023-04-03T03:11:11.985Z,11.83
2023-04-03T03:16:08.978Z,11.66
2023-04-03T03:21:06.206Z,11.78
2023-04-03T03:26:06.248Z,11.41
2023-04-03T03:31:05.312Z,11.35
2023-04-03T03:36:03.017Z,11.26
2023-04-03T03:41:00.043Z,11.47
2023-04-03T03:45:58.362Z,11.19
2023-04-03T03:50:57.123Z,11.47
2023-04-03T03:55:58.410Z,11.39
2023-04-03T04:00:57.210Z,11.26
2023-04-03T04:05:55.192Z,11.06
2023-04-03T04:10:52.248Z,10.49
2023-04-03T04:15:49.499Z,10.04
2023-04-03T04:20:47.710Z,9.34
2023-04-03T04:25:48.103Z,9.01
2023-04-03T04:30:48.425Z,9.15
2023-04-03T04:35:50.604Z,9.03
2023-04-03T04:40:51.169Z,9.76
2023-04-03T04:45:48.582Z,9.69
2023-04-03T04:50:48.952Z,10.19
2023-04-03T04:55:46.606Z,10.51
2023-04-03T05:00:44.300Z,10.78
2023-04-03T05:05:41.596Z,11.58
2023-04-03T05:10:41.187Z,11.67
2023-04-03T05:15:41.910Z,11.94
2023-04-03T05:20:43.700Z,12.47
2023-04-03T05:25:41.465Z,13.40
2023-04-03T05:30:39.731Z,14.38
2023-04-03T05:35:39.733Z,16.76
2023-04-03T05:40:45.273Z,18.34
2023-04-03T05:45:46.850Z,20.32
2023-04-03T05:50:46.771Z,21.84
2023-04-03T05:55:50.195Z,22.50
2023-04-03T06:00:47.500Z,22.84
2023-04-03T06:05:44.562Z,22.85
2023-04-03T06:10:42.359Z,22.94
2023-04-03T06:15:45.848Z,22.98
2023-04-03T06:20:44.754Z,23.30
2023-04-03T06:25:42.402Z,22.95
2023-04-03T06:30:39.356Z,23.50
2023-04-03T06:35:38.892Z,24.91
2023-04-03T06:40:36.581Z,26.76
2023-04-03T06:45:35.051Z,27.97
2023-04-03T06:50:33.649Z,28.57
2023-04-03T06:55:32.101Z,29.92
2023-04-03T07:00:31.934Z,30.32
2023-04-03T07:05:30.109Z,30.52
2023-04-03T07:10:27.270Z,30.32
2023-04-03T07:15:25.173Z,29.79
2023-04-03T07:20:22.017Z,29.38
2023-04-03T07:25:18.901Z,28.78
2023-04-03T07:30:19.254Z,27.75
2023-04-03T07:35:23.872Z,26.39
2023-04-03T07:40:21.521Z,24.05
2023-04-03T07:45:18.393Z,22.68
2023-04-03T07:50:16.381Z,21.94
2023-04-03T07:55:13.284Z,21.24
2023-04-03T08:00:12.495Z,21.08
2023-04-03T08:05:09.802Z,20.94
2023-04-03T08:10:08.315Z,20.43
2023-04-03T08:15:06.077Z,20.07
2023-04-03T08:20:03.923Z,19.90
2023-04-03T08:25:01.835Z,20.30
2023-04-03T08:29:59.317Z,20.63
2023-04-03T08:34:56.238Z,20.62
2023-04-03T08:39:53.732Z,20.66
2023-04-03T08:44:58.028Z,20.26
2023-04-03T08:50:00.246Z,20.12
2023-04-03T08:55:01.378Z,20.07
2023-04-03T09:00:01.653Z,19.89
2023-04-03T09:04:59.268Z,19.45
2023-04-03T09:09:59.311Z,18.82
2023-04-03T09:15:09.593Z,18.36
2023-04-03T09:20:26.461Z,18.29
2023-04-03T09:25:26.465Z,18.34
2023-04-03T09:30:29.878Z,18.38
2023-04-03T09:35:40.633Z,17.88
2023-04-03T09:40:47.703Z,18.11
2023-04-03T09:45:46.047Z,17.74
2023-04-03T09:50:57.040Z,18.03
2023-04-03T09:55:53.828Z,18.04
2023-04-03T10:00:57.960Z,17.59
2023-04-03T10:05:55.957Z,17.75
2023-04-03T10:11:12.269Z,18.08
2023-04-03T10:16:15.024Z,18.03
2023-04-03T10:21:27.078Z,18.15
2023-04-03T10:26:35.224Z,18.39
2023-04-03T10:31:47.192Z,18.40
2023-04-03T10:36:50.570Z,18.59
2023-04-03T10:42:09.338Z,19.19
2023-04-03T10:47:19.610Z,19.69
2023-04-03T10:52:23.218Z,19.58
2023-04-03T10:57:23.328Z,19.57
2023-04-03T11:02:31.066Z,19.66
2023-04-03T11:07:36.402Z,19.68
2023-04-03T11:12:42.671Z,19.73
2023-04-03T11:17:46.957Z,19.86
2023-04-03T11:22:48.180Z,19.78
2023-04-03T11:27:48.185Z,19.47
2023-04-03T11:33:11.287Z,19.42
2023-04-03T11:38:19.609Z,19.47
2023-04-03T11:43:23.512Z,19.32
2023-04-03T11:48:54.674Z,19.20
2023-04-03T11:53:52.874Z,19.16
2023-04-03T11:59:32.098Z,19.26
2023-04-03T12:04:34.491Z,18.82
2023-04-03T12:10:30.434Z,19.04
2023-04-03T12:15:55.788Z,18.71
2023-04-03T12:20:57.955Z,18.64
2023-04-03T12:26:10.647Z,18.65
2023-04-03T12:31:12.456Z,18.75
2023-04-03T12:36:16.444Z,18.71
2023-04-03T12:41:29.598Z,18.76
2023-04-03T12:46:38.760Z,18.56
2023-04-03T12:51:45.878Z,18.42
2023-04-03T12:56:47.985Z,18.04
2023-04-03T13:01:59.573Z,18.32
2023-04-03T13:07:00.924Z,18.30
2023-04-03T13:12:02.254Z,18.20
2023-04-03T13:17:00.965Z,18.34
2023-04-03T13:22:06.996Z,18.26
2023-04-03T13:27:07.013Z,17.51
2023-04-03T13:32:07.004Z,17.73
2023-04-03T13:37:05.419Z,17.96
2023-04-03T13:42:16.464Z,17.43
2023-04-03T13:47:20.543Z,17.69
2023-04-03T13:52:30.299Z,17.51
2023-04-03T13:57:28.428Z,17.36
2023-04-03T14:02:35.221Z,17.37
2023-04-03T14:07:38.087Z,17.41
2023-04-03T14:12:37.986Z,17.31
2023-04-03T14:18:08.806Z,17.07
2023-04-03T14:28:23.660Z,16.85
2023-04-03T14:33:27.759Z,17.00
2023-04-03T14:38:27.238Z,16.64
2023-04-03T14:43:24.523Z,16.86
2023-04-03T14:48:24.181Z,16.65
2023-04-03T14:53:37.783Z,16.66
2023-04-03T14:58:36.808Z,16.33
2023-04-03T15:03:34.378Z,16.31
2023-04-03T15:08:31.239Z,16.07
2023-04-03T15:13:27.963Z,16.41
2023-04-03T15:18:28.980Z,16.39
2023-04-03T15:23:30.293Z,16.09
2023-04-03T15:28:33.268Z,16.09
2023-04-03T15:33:31.148Z,15.99
2023-04-03T15:38:28.846Z,15.78
2023-04-03T15:43:26.129Z,15.46
2023-04-03T15:48:29.580Z,15.52
2023-04-03T15:53:26.627Z,15.51
2023-04-03T15:58:24.306Z,15.14
2023-04-03T16:03:22.609Z,15.19
2023-04-03T16:08:20.143Z,15.40
2023-04-03T16:13:16.880Z,15.31
2023-04-03T16:18:15.879Z,14.95
2023-04-03T16:23:12.749Z,14.80
2023-04-03T16:28:15.606Z,14.97
2023-04-03T16:33:15.567Z,15.08
2023-04-03T16:38:12.645Z,14.95
2023-04-03T16:43:09.793Z,14.88
2023-04-03T16:48:06.935Z,14.81
2023-04-03T16:53:04.767Z,14.57
2023-04-03T16:58:01.973Z,14.19
2023-04-03T17:02:59.218Z,13.93
2023-04-03T17:07:56.321Z,13.61
2023-04-03T17:12:55.808Z,13.77
2023-04-03T17:17:55.982Z,13.63
2023-04-03T17:22:54.207Z,13.47
2023-04-03T17:27:51.108Z,13.40
2023-04-03T17:32:49.189Z,13.13
2023-04-03T17:37:49.249Z,13.11
2023-04-03T17:42:46.188Z,13.31
2023-04-03T17:47:43.100Z,12.93
2023-04-03T17:52:40.901Z,13.01
2023-04-03T17:57:38.333Z,12.55
2023-04-03T18:02:35.610Z,12.67
2023-04-03T18:07:32.642Z,12.66
2023-04-03T18:12:30.989Z,12.98
2023-04-03T18:17:28.052Z,13.06
2023-04-03T18:22:25.395Z,13.10
2023-04-03T18:27:26.505Z,13.12
2023-04-03T18:32:24.289Z,12.92
2023-04-03T18:37:23.236Z,13.13
2023-04-03T18:42:25.313Z,13.02
2023-04-03T18:47:24.273Z,12.97
2023-04-03T18:52:24.658Z,12.81
2023-04-03T18:57:21.416Z,12.62
2023-04-03T19:02:21.382Z,12.61
2023-04-03T19:07:19.033Z,12.65
2023-04-03T19:12:16.682Z,12.73
2023-04-03T19:17:13.796Z,11.95
2023-04-03T19:22:11.634Z,12.62
2023-04-03T19:27:08.535Z,12.53
2023-04-03T19:32:12.097Z,11.99
2023-04-03T19:37:14.268Z,12.34
2023-04-03T19:42:12.255Z,11.68
2023-04-03T19:47:12.868Z,12.12
2023-04-03T19:52:09.702Z,12.01
2023-04-03T19:57:07.457Z,11.80
2023-04-03T20:02:04.416Z,12.03
2023-04-03T20:07:02.400Z,11.85
2023-04-03T20:12:00.764Z,11.60
2023-04-03T20:16:57.807Z,11.05
2023-04-03T20:21:58.398Z,11.11
2023-04-03T20:26:58.014Z,11.13
2023-04-03T20:31:55.478Z,11.05
2023-04-03T20:36:52.888Z,10.94
2023-04-03T20:41:50.239Z,10.88
2023-04-03T20:46:52.729Z,10.95
2023-04-03T20:51:50.972Z,10.86
2023-04-03T20:56:49.049Z,10.90
2023-04-03T21:01:46.993Z,10.86
2023-04-03T21:07:22.125Z,10.86
2023-04-03T21:12:55.920Z,10.85
2023-04-03T21:18:16.534Z,10.51
2023-04-03T21:23:13.693Z,10.70
2023-04-03T21:28:10.750Z,10.67
2023-04-03T21:33:09.886Z,10.50
2023-04-03T21:38:08.484Z,10.60
2023-04-03T21:43:05.440Z,10.56
2023-04-03T21:48:03.237Z,10.44
2023-04-03T21:53:01.404Z,10.50
2023-04-03T21:57:58.868Z,10.40
2023-04-03T22:03:04.142Z,9.83
2023-04-03T22:08:06.628Z,9.47
2023-04-03T22:13:03.532Z,8.69
2023-04-03T22:18:00.476Z,8.85
2023-04-03T22:22:57.605Z,8.72
2023-04-03T22:27:55.131Z,8.49
2023-04-03T22:32:51.926Z,8.43
2023-04-03T22:37:48.700Z,8.12
2023-04-03T22:42:48.355Z,8.28
2023-04-03T22:47:46.215Z,8.11
2023-04-03T22:52:43.068Z,7.96
2023-04-03T22:57:39.882Z,7.82
2023-04-03T23:02:36.823Z,7.78
2023-04-03T23:07:34.364Z,7.62
2023-04-03T23:12:36.428Z,7.68
2023-04-03T23:17:37.507Z,7.32
2023-04-03T23:22:35.746Z,7.30
2023-04-03T23:27:32.702Z,7.48
2023-04-03T23:32:30.233Z,7.40
2023-04-03T23:37:27.360Z,7.31
2023-04-03T23:42:24.822Z,6.96
2023-04-03T23:47:21.660Z,7.09
2023-04-03T23:52:19.393Z,7.13
2023-04-03T23:57:16.388Z,7.20
